createdAt,value
2017-11-08T00:00:00.046Z,103.65
2017-11-08T00:02:28.212Z,112.40
2017-11-08T00:04:56.388Z,116.07
2017-11-08T00:07:24.535Z,111.00
2017-11-08T00:09:52.700Z,118.40
2017-11-08T00:12:21.214Z,139.27
2017-11-08T00:14:49.389Z,116.53
2017-11-08T00:17:17.532Z,131.75
2017-11-08T00:19:45.693Z,135.43
2017-11-08T00:22:14.630Z,122.55
2017-11-08T00:24:42.820Z,115.25
2017-11-08T00:27:10.972Z,123.18
2017-11-08T00:29:39.732Z,143.57
2017-11-08T00:32:07.878Z,124.33
2017-11-08T00:34:37.326Z,125.62
2017-11-08T00:37:05.479Z,128.05
2017-11-08T00:39:33.702Z,117.32
2017-11-08T00:42:01.854Z,114.32
2017-11-08T00:44:30.042Z,116.82
2017-11-08T00:46:58.195Z,120.87
2017-11-08T00:49:26.374Z,118.97
2017-11-08T00:51:55.164Z,115.95
2017-11-08T00:54:23.319Z,125.32
2017-11-08T00:56:52.099Z,107.63
2017-11-08T00:59:20.256Z,125.10
2017-11-08T01:01:48.428Z,123.00
2017-11-08T01:04:16.582Z,98.43
2017-11-08T01:06:45.627Z,108.60
2017-11-08T01:09:13.796Z,107.80
2017-11-08T01:11:41.973Z,116.62
2017-11-08T01:14:10.143Z,119.85
2017-11-08T01:16:38.340Z,133.00
2017-11-08T01:19:06.487Z,111.40
2017-11-08T01:21:34.652Z,132.95
2017-11-08T01:24:02.802Z,124.38
2017-11-08T01:26:30.978Z,113.95
2017-11-08T01:28:59.131Z,118.57
2017-11-08T01:31:28.063Z,120.57
2017-11-08T01:33:56.218Z,137.10
2017-11-08T01:36:24.411Z,138.48
2017-11-08T01:38:52.595Z,140.62
2017-11-08T01:41:25.548Z,134.10
2017-11-08T01:43:54.593Z,154.30
2017-11-08T01:46:22.752Z,136.00
2017-11-08T01:48:50.916Z,140.52
2017-11-08T01:51:19.062Z,134.27
2017-11-08T01:53:47.244Z,146.90
2017-11-08T01:56:15.382Z,146.35
2017-11-08T01:58:44.306Z,140.98
2017-11-08T02:01:12.449Z,128.70
2017-11-08T02:03:40.617Z,124.05
2017-11-08T02:06:09.526Z,141.30
2017-11-08T03:52:57.543Z,190.70
2017-11-08T03:55:25.697Z,209.10
2017-11-08T03:57:53.878Z,216.68
2017-11-08T04:00:22.493Z,217.37
2017-11-08T04:02:50.671Z,240.35
2017-11-08T04:05:18.846Z,210.13
2017-11-08T04:07:47.017Z,214.77
2017-11-08T04:10:15.164Z,174.57
2017-11-08T04:12:43.443Z,157.70
2017-11-08T04:15:11.590Z,180.07
2017-11-08T04:17:40.647Z,183.18
2017-11-08T04:20:10.179Z,170.75
2017-11-08T04:22:38.570Z,148.13
2017-11-08T04:25:06.719Z,190.52
2017-11-08T04:27:35.662Z,176.97
2017-11-08T04:30:03.825Z,164.00
2017-11-08T04:32:31.972Z,171.63
2017-11-08T04:35:00.170Z,163.33
2017-11-08T04:37:28.332Z,153.93
2017-11-08T04:39:56.503Z,148.30
2017-11-08T04:42:24.682Z,138.67
2017-11-08T04:44:52.850Z,135.77
2017-11-08T04:47:21.009Z,142.23
2017-11-08T04:49:49.739Z,139.18
2017-11-08T04:52:17.903Z,140.00
2017-11-08T04:54:46.058Z,136.40
2017-11-08T04:57:14.198Z,122.03
2017-11-08T04:59:43.220Z,125.20
2017-11-08T05:02:11.367Z,131.40
2017-11-08T05:04:39.535Z,125.00
2017-11-08T05:07:08.452Z,125.53
2017-11-08T05:09:36.644Z,124.43
2017-11-08T05:12:05.086Z,132.00
2017-11-08T05:14:33.251Z,124.07
2017-11-08T05:17:02.181Z,112.73
2017-11-08T05:19:30.337Z,110.43
2017-11-08T05:21:58.509Z,111.63
2017-11-08T05:24:27.631Z,105.78
2017-11-08T05:26:55.798Z,111.37
2017-11-08T05:29:23.948Z,116.73
2017-11-08T05:31:52.121Z,116.57
2017-11-08T05:34:20.273Z,107.40
2017-11-08T05:36:48.757Z,109.20
2017-11-08T05:39:16.903Z,110.10
2017-11-08T05:41:45.541Z,101.07
2017-11-08T05:44:13.699Z,118.50
2017-11-08T05:46:41.989Z,106.70
2017-11-08T05:49:10.152Z,111.82
2017-11-08T05:51:38.310Z,110.03
2017-11-08T05:54:06.683Z,125.63
2017-11-08T05:56:34.842Z,105.30
2017-11-08T05:59:03.815Z,126.60
2017-11-08T06:01:31.964Z,116.63
2017-11-08T06:04:00.130Z,120.65
2017-11-08T06:06:28.274Z,124.38
2017-11-08T06:08:56.474Z,116.97
2017-11-08T06:11:24.618Z,130.05
2017-11-08T06:13:52.770Z,129.77
2017-11-08T06:16:21.687Z,111.72
2017-11-08T06:18:49.870Z,129.77
2017-11-08T06:21:18.022Z,124.85
2017-11-08T06:23:46.191Z,132.73
2017-11-08T06:26:14.343Z,121.78
2017-11-08T06:28:43.326Z,126.20
2017-11-08T06:31:12.263Z,116.80
2017-11-08T06:33:40.451Z,132.55
2017-11-08T06:36:08.610Z,119.57
2017-11-08T06:38:36.769Z,131.98
2017-11-08T06:41:04.934Z,131.98
2017-11-08T06:43:33.084Z,137.60
2017-11-08T06:46:03.060Z,121.93
2017-11-08T06:48:31.211Z,121.28
2017-11-08T06:51:00.072Z,142.23
2017-11-08T06:53:29.018Z,113.35
2017-11-08T06:56:00.015Z,121.57
2017-11-08T06:58:28.192Z,119.97
2017-11-08T07:00:56.418Z,135.63
2017-11-08T07:03:24.686Z,110.53
2017-11-08T07:05:52.874Z,101.28
2017-11-08T07:08:21.019Z,99.22
2017-11-08T07:10:49.194Z,106.03
2017-11-08T07:13:18.186Z,101.20
2017-11-08T07:15:47.266Z,98.10
2017-11-08T07:18:15.434Z,98.25
2017-11-08T07:20:43.616Z,95.97
2017-11-08T07:23:11.767Z,101.53
2017-11-08T07:25:39.928Z,111.37
2017-11-08T07:28:08.098Z,110.35
2017-11-08T07:30:36.263Z,104.05
2017-11-08T07:33:05.211Z,97.45
2017-11-08T07:35:33.374Z,95.22
2017-11-08T07:38:01.546Z,108.93
2017-11-08T07:40:29.699Z,85.38
2017-11-08T07:42:57.857Z,91.90
2017-11-08T07:45:26.007Z,89.03
2017-11-08T07:47:54.931Z,91.47
2017-11-08T07:50:23.123Z,87.57
2017-11-08T07:52:51.301Z,77.62
2017-11-08T07:55:25.166Z,86.70
2017-11-08T07:57:54.102Z,81.90
2017-11-08T08:00:23.303Z,66.50
2017-11-08T08:02:52.236Z,82.23
2017-11-08T08:05:21.147Z,77.97
2017-11-08T08:07:49.356Z,67.87
2017-11-08T08:10:17.494Z,65.17
2017-11-08T08:12:45.631Z,63.33
2017-11-08T08:15:14.159Z,72.60
2017-11-08T08:17:42.338Z,62.77
2017-11-08T08:20:10.509Z,57.67
2017-11-08T08:22:38.754Z,76.00
2017-11-08T08:25:07.692Z,66.45
2017-11-08T08:27:36.057Z,60.83
2017-11-08T08:30:04.229Z,60.90
2017-11-08T08:32:32.410Z,56.77
2017-11-08T08:35:00.574Z,56.80
2017-11-08T08:37:28.735Z,57.57
2017-11-08T08:39:56.915Z,60.50
2017-11-08T08:42:25.064Z,62.73
2017-11-08T08:44:53.237Z,62.10
2017-11-08T08:47:22.163Z,60.00
2017-11-08T08:49:50.322Z,56.83
2017-11-08T08:52:18.559Z,56.93
2017-11-08T08:54:47.482Z,57.23
2017-11-08T08:57:15.664Z,64.00
2017-11-08T08:59:43.867Z,55.07
2017-11-08T09:02:12.973Z,61.03
2017-11-08T09:04:41.250Z,66.50
2017-11-08T09:07:09.692Z,66.53
2017-11-08T09:09:37.874Z,64.70
2017-11-08T09:12:06.773Z,76.37
2017-11-08T09:14:34.933Z,62.13
2017-11-08T09:17:03.116Z,61.70
2017-11-08T09:19:33.208Z,63.67
2017-11-08T09:22:01.383Z,58.17
2017-11-08T09:24:35.418Z,57.97
2017-11-08T09:27:04.476Z,65.73
2017-11-08T09:29:35.401Z,61.43
2017-11-08T09:32:04.326Z,66.37
2017-11-08T09:34:32.494Z,61.97
2017-11-08T09:37:00.655Z,70.27
2017-11-08T09:39:28.831Z,64.43
2017-11-08T09:41:59.709Z,62.03
2017-11-08T09:44:27.960Z,62.47
2017-11-08T09:46:58.547Z,61.43
2017-11-08T09:49:27.467Z,59.60
2017-11-08T09:51:55.661Z,75.10
2017-11-08T09:54:33.916Z,56.57
2017-11-08T09:57:08.570Z,56.70
2017-11-08T09:59:38.638Z,63.83
2017-11-08T10:02:07.161Z,63.70
2017-11-08T10:04:35.334Z,56.37
2017-11-08T10:07:03.491Z,54.37
2017-11-08T10:09:37.495Z,57.30
2017-11-08T10:12:12.171Z,59.80
2017-11-08T10:14:41.176Z,54.40
2017-11-08T10:17:11.448Z,55.53
2017-11-08T10:19:39.680Z,57.73
2017-11-08T10:22:09.900Z,56.33
2017-11-08T10:24:44.506Z,56.70
2017-11-08T10:27:12.708Z,55.37
2017-11-08T10:29:40.889Z,54.23
2017-11-08T10:32:09.824Z,56.23
2017-11-08T10:34:38.024Z,56.80
2017-11-08T10:37:06.174Z,55.73
2017-11-08T10:39:34.357Z,57.13
2017-11-08T10:42:02.460Z,52.03
2017-11-08T10:44:30.654Z,48.83
2017-11-08T10:47:01.624Z,60.27
2017-11-08T10:49:35.428Z,54.20
2017-11-08T10:52:03.582Z,60.87
2017-11-08T10:54:31.745Z,57.23
2017-11-08T10:56:59.917Z,54.53
2017-11-08T10:59:28.080Z,56.60
2017-11-08T11:01:56.987Z,53.00
2017-11-08T11:04:25.135Z,56.23
2017-11-08T11:06:53.301Z,51.43
2017-11-08T11:09:23.333Z,51.83
2017-11-08T11:11:51.511Z,59.10
2017-11-08T11:14:20.403Z,55.00
2017-11-08T11:16:48.590Z,54.40
2017-11-08T11:19:20.678Z,52.37
2017-11-08T11:21:48.964Z,54.83
2017-11-08T11:24:17.132Z,52.40
2017-11-08T11:29:39.483Z,60.40
2017-11-08T11:32:11.475Z,54.17
2017-11-08T11:34:40.402Z,54.17
2017-11-08T11:37:08.584Z,55.60
2017-11-08T11:39:36.770Z,60.80
2017-11-08T11:42:04.967Z,59.50
2017-11-08T11:44:33.134Z,57.20
2017-11-08T11:47:01.315Z,53.70
2017-11-08T11:49:34.926Z,56.93
2017-11-08T11:52:03.166Z,58.27
2017-11-08T11:54:31.372Z,68.80
2017-11-08T11:57:00.459Z,63.77
2017-11-08T11:59:28.632Z,64.47
2017-11-08T12:01:56.785Z,67.67
2017-11-08T12:04:25.056Z,64.50
2017-11-08T12:06:53.215Z,71.20
2017-11-08T12:09:21.430Z,64.00
2017-11-08T12:11:59.714Z,62.50
2017-11-08T12:14:27.895Z,57.20
2017-11-08T12:16:57.941Z,62.20
2017-11-08T12:19:26.893Z,65.00
2017-11-08T12:21:55.775Z,80.93
2017-11-08T12:24:23.950Z,63.30
2017-11-08T12:26:52.100Z,60.90
2017-11-08T12:29:20.264Z,62.50
2017-11-08T12:31:48.424Z,59.50
2017-11-08T12:34:17.376Z,57.17
2017-11-08T12:36:45.526Z,67.07
2017-11-08T12:39:13.703Z,60.53
2017-11-08T12:41:41.962Z,65.97
2017-11-08T12:44:10.133Z,64.33
2017-11-08T12:46:38.289Z,60.30
2017-11-08T12:49:07.220Z,68.53
2017-11-08T12:51:35.392Z,70.10
2017-11-08T12:54:03.567Z,67.37
2017-11-08T12:56:34.177Z,64.63
2017-11-08T12:59:02.343Z,70.40
2017-11-08T13:01:30.498Z,65.47
2017-11-08T13:03:59.501Z,71.10
2017-11-08T13:06:27.693Z,66.00
2017-11-08T13:08:55.889Z,74.57
2017-11-08T13:11:29.493Z,67.17
2017-11-08T13:13:57.647Z,70.70
2017-11-08T13:16:25.824Z,70.67
2017-11-08T13:18:54.001Z,72.07
2017-11-08T13:21:22.173Z,65.70
2017-11-08T13:23:50.332Z,66.77
2017-11-08T13:26:18.545Z,74.67
2017-11-08T13:28:46.796Z,65.67
2017-11-08T13:31:14.993Z,61.63
2017-11-08T13:33:43.158Z,69.37
2017-11-08T13:36:11.347Z,66.13
2017-11-08T13:38:39.625Z,66.07
2017-11-08T13:41:07.800Z,68.60
2017-11-08T13:43:35.955Z,67.20
2017-11-08T13:46:04.103Z,76.47
2017-11-08T13:48:32.277Z,65.90
2017-11-08T13:51:00.429Z,65.03
2017-11-08T13:53:28.605Z,65.63
2017-11-08T13:55:56.760Z,64.97
2017-11-08T13:58:25.726Z,68.63
2017-11-08T14:00:53.914Z,70.40
2017-11-08T14:03:25.622Z,76.77
2017-11-08T14:05:53.802Z,71.80
2017-11-08T14:08:21.981Z,67.27
2017-11-08T14:10:50.150Z,74.30
2017-11-08T14:13:18.317Z,72.10
2017-11-08T14:15:46.512Z,74.13
2017-11-08T14:18:14.709Z,71.33
2017-11-08T14:20:44.004Z,73.70
2017-11-08T14:23:12.958Z,69.60
2017-11-08T14:25:41.113Z,68.47
2017-11-08T14:28:09.657Z,70.37
2017-11-08T14:30:38.596Z,79.23
2017-11-08T14:33:06.796Z,67.23
2017-11-08T14:35:34.954Z,77.77
2017-11-08T14:38:03.144Z,70.37
2017-11-08T14:40:31.305Z,77.47
2017-11-08T14:42:59.466Z,100.37
2017-11-08T14:45:27.636Z,113.57
2017-11-08T14:47:55.822Z,97.20
2017-11-08T14:50:24.012Z,88.30
2017-11-08T14:55:57.176Z,86.10
2017-11-08T14:58:25.319Z,79.63
2017-11-08T15:00:54.288Z,93.10
2017-11-08T15:03:22.449Z,87.77
2017-11-08T15:05:50.636Z,97.13
2017-11-08T15:08:18.799Z,85.77
2017-11-08T15:10:46.977Z,86.53
2017-11-08T15:13:15.165Z,86.40
2017-11-08T15:15:43.364Z,88.10
2017-11-08T15:18:11.537Z,99.33
2017-11-08T15:20:39.753Z,85.00
2017-11-08T15:23:07.925Z,78.00
2017-11-08T15:25:36.111Z,86.20
2017-11-08T15:28:04.280Z,79.00
2017-11-08T15:30:32.659Z,84.73
2017-11-08T15:33:00.827Z,77.50
2017-11-08T15:35:29.004Z,96.93
2017-11-08T15:37:57.775Z,120.40
2017-11-08T15:40:28.711Z,105.53
2017-11-08T15:42:56.872Z,100.20
2017-11-08T15:45:25.051Z,91.00
2017-11-08T15:47:53.424Z,93.30
2017-11-08T15:50:21.588Z,93.43
2017-11-08T15:52:49.758Z,94.10
2017-11-08T15:55:17.919Z,81.30
2017-11-08T15:57:46.856Z,83.93
2017-11-08T16:00:15.024Z,88.17
2017-11-08T16:02:44.210Z,87.77
2017-11-08T16:05:12.363Z,79.53
2017-11-08T16:07:40.538Z,90.30
2017-11-08T16:10:08.689Z,79.53
2017-11-08T16:12:37.627Z,83.70
2017-11-08T16:15:06.049Z,84.73
2017-11-08T16:17:34.988Z,76.77
2017-11-08T16:20:17.756Z,83.33
2017-11-08T16:22:46.695Z,79.77
2017-11-08T16:25:14.855Z,84.93
2017-11-08T16:27:43.011Z,79.13
2017-11-08T16:30:11.264Z,80.83
2017-11-08T16:32:40.200Z,87.37
2017-11-08T16:35:08.373Z,78.27
2017-11-08T16:37:36.518Z,85.23
2017-11-08T16:40:05.304Z,78.53
2017-11-08T16:42:34.215Z,91.83
2017-11-08T16:45:02.400Z,80.37
2017-11-08T16:47:30.553Z,81.70
2017-11-08T16:49:58.724Z,92.80
2017-11-08T16:52:26.889Z,84.30
2017-11-08T16:54:55.055Z,93.57
2017-11-08T16:57:24.394Z,80.50
2017-11-08T16:59:52.569Z,85.37
2017-11-08T17:02:20.718Z,81.90
2017-11-08T17:04:48.909Z,96.27
2017-11-08T17:07:17.067Z,88.50
2017-11-08T17:09:45.469Z,86.70
2017-11-08T17:12:13.636Z,79.27
2017-11-08T17:14:41.787Z,74.93
2017-11-08T17:17:10.469Z,74.23
2017-11-08T17:19:38.622Z,83.17
2017-11-08T17:22:07.543Z,77.43
2017-11-08T17:24:35.691Z,76.70
2017-11-08T17:27:04.618Z,79.23
2017-11-08T17:29:32.761Z,88.13
2017-11-08T17:32:00.925Z,76.93
2017-11-08T17:34:30.484Z,83.10
2017-11-08T17:36:59.470Z,88.97
2017-11-08T17:39:27.616Z,74.67
2017-11-08T17:41:55.858Z,79.57
2017-11-08T17:44:24.805Z,81.07
2017-11-08T17:46:52.957Z,87.23
2017-11-08T17:49:21.133Z,79.53
2017-11-08T17:51:49.651Z,76.40
2017-11-08T17:54:17.827Z,71.20
2017-11-08T17:56:45.978Z,82.73
2017-11-08T17:59:14.188Z,88.07
2017-11-08T18:01:42.343Z,71.30
2017-11-08T18:04:10.522Z,76.77
2017-11-08T18:06:38.679Z,77.07
2017-11-08T18:09:06.866Z,79.80
2017-11-08T18:11:35.022Z,77.80
2017-11-08T18:14:03.205Z,84.27
2017-11-08T18:16:31.461Z,75.70
2017-11-08T18:18:59.633Z,75.47
2017-11-08T18:21:27.801Z,79.40
2017-11-08T18:23:55.989Z,75.07
2017-11-08T18:26:24.251Z,78.53
2017-11-08T18:28:52.828Z,70.07
2017-11-08T18:31:21.071Z,73.97
2017-11-08T18:33:49.212Z,69.47
2017-11-08T18:36:17.400Z,79.47
2017-11-08T18:38:46.330Z,78.93
2017-11-08T18:41:14.511Z,76.87
2017-11-08T18:43:43.320Z,80.70
2017-11-08T18:46:11.493Z,77.00
2017-11-08T18:48:39.674Z,72.57
2017-11-08T18:51:07.848Z,74.10
2017-11-08T18:53:35.999Z,67.87
2017-11-08T18:56:04.187Z,69.90
2017-11-08T18:58:32.369Z,73.67
2017-11-08T19:01:00.560Z,68.37
2017-11-08T19:03:29.477Z,74.97
2017-11-08T19:05:57.687Z,74.87
2017-11-08T19:08:25.890Z,73.33
2017-11-08T19:10:54.189Z,66.07
2017-11-08T19:13:22.375Z,76.23
2017-11-08T19:15:50.592Z,69.00
2017-11-08T19:18:18.760Z,75.07
2017-11-08T19:20:46.901Z,71.53
2017-11-08T19:23:15.196Z,69.10
2017-11-08T19:25:43.528Z,65.53
2017-11-08T19:28:12.472Z,75.90
2017-11-08T19:30:40.624Z,74.10
2017-11-08T19:33:08.818Z,81.60
2017-11-08T19:35:36.973Z,93.47
2017-11-08T19:38:05.273Z,78.73
2017-11-08T19:40:33.426Z,93.33
2017-11-08T19:43:01.596Z,82.13
2017-11-08T19:45:29.761Z,82.80
2017-11-08T19:47:57.940Z,91.95
2017-11-08T19:50:26.108Z,88.60
2017-11-08T19:52:54.918Z,74.10
2017-11-08T19:55:23.187Z,89.27
2017-11-08T19:57:51.367Z,84.07
2017-11-08T20:00:19.541Z,86.17
2017-11-08T20:02:47.695Z,92.27
2017-11-08T20:05:15.868Z,79.67
2017-11-08T20:07:44.065Z,76.37
2017-11-08T20:10:12.248Z,101.97
2017-11-08T20:12:40.498Z,107.40
2017-11-08T20:15:08.677Z,119.47
2017-11-08T20:17:36.824Z,119.07
2017-11-08T20:20:05.019Z,91.93
2017-11-08T20:22:33.180Z,93.10
2017-11-08T20:25:01.384Z,83.60
2017-11-08T20:27:29.547Z,80.03
2017-11-08T20:29:57.709Z,67.73
2017-11-08T20:32:25.991Z,74.90
2017-11-08T20:34:54.141Z,70.60
2017-11-08T20:37:22.358Z,74.17
2017-11-08T20:39:51.279Z,74.27
2017-11-08T20:42:19.441Z,69.27
2017-11-08T20:44:47.664Z,74.30
2017-11-08T20:47:15.906Z,66.83
2017-11-08T20:49:44.086Z,78.67
2017-11-08T20:52:12.247Z,75.00
2017-11-08T20:54:40.404Z,68.40
2017-11-08T20:57:09.339Z,71.27
2017-11-08T20:59:37.710Z,71.20
2017-11-08T21:02:05.891Z,73.60
2017-11-08T21:04:34.036Z,76.37
2017-11-08T21:07:02.205Z,80.13
2017-11-08T21:09:30.367Z,78.12
2017-11-08T21:11:58.545Z,76.12
2017-11-08T21:14:27.607Z,76.83
2017-11-08T21:16:55.766Z,73.00
2017-11-08T21:19:23.928Z,73.43
2017-11-08T21:21:52.293Z,80.23
2017-11-08T21:24:20.455Z,77.00
2017-11-08T21:26:48.646Z,79.03
2017-11-08T21:29:16.803Z,76.97
2017-11-08T21:31:44.958Z,74.07
2017-11-08T21:34:13.316Z,77.13
2017-11-08T21:36:42.225Z,74.50
2017-11-08T21:39:11.000Z,79.12
2017-11-08T21:41:40.058Z,75.73
2017-11-08T21:44:08.223Z,71.35
2017-11-08T21:46:36.359Z,77.97
2017-11-08T21:49:04.534Z,76.57
2017-11-08T21:51:32.729Z,80.67
2017-11-08T21:54:00.928Z,73.67
2017-11-08T21:56:30.016Z,130.52
2017-11-08T21:58:58.165Z,96.13
2017-11-08T22:01:26.457Z,84.33
2017-11-08T22:03:54.606Z,91.68
2017-11-08T22:06:22.772Z,91.17
2017-11-08T22:08:51.508Z,82.10
2017-11-08T22:11:19.888Z,78.47
2017-11-08T22:13:48.041Z,83.80
2017-11-08T22:16:16.237Z,94.43
2017-11-08T22:18:44.392Z,85.20
2017-11-08T22:21:12.567Z,86.30
2017-11-08T22:23:40.733Z,84.57
2017-11-08T22:26:08.908Z,72.95
2017-11-08T22:28:37.070Z,86.63
2017-11-08T22:31:05.248Z,87.23
2017-11-08T22:33:33.403Z,77.10
2017-11-08T22:36:01.575Z,83.43
2017-11-08T22:38:29.730Z,83.73
2017-11-08T22:40:57.929Z,81.13
2017-11-08T22:43:26.132Z,81.70
2017-11-08T22:45:54.289Z,86.47
2017-11-08T22:48:22.460Z,87.47
2017-11-08T22:50:50.619Z,95.73
2017-11-08T22:53:18.793Z,91.97
2017-11-08T22:55:46.975Z,102.28
2017-11-08T22:58:15.149Z,81.33
2017-11-08T23:00:43.315Z,79.70
2017-11-08T23:03:11.500Z,86.23
2017-11-08T23:05:39.661Z,86.50
2017-11-08T23:08:07.836Z,88.80
2017-11-08T23:10:36.019Z,84.68
2017-11-08T23:13:04.272Z,80.80
2017-11-08T23:15:33.516Z,90.53
2017-11-08T23:18:01.720Z,91.37
2017-11-08T23:20:29.872Z,86.32
2017-11-08T23:22:59.121Z,84.40
2017-11-08T23:25:27.280Z,82.90
2017-11-08T23:27:55.818Z,83.87
2017-11-08T23:30:24.748Z,83.32
2017-11-08T23:32:53.217Z,87.80
2017-11-08T23:35:21.386Z,85.43
2017-11-08T23:37:50.154Z,90.28
2017-11-08T23:40:19.105Z,94.65
2017-11-08T23:42:47.267Z,82.17
2017-11-08T23:45:15.441Z,91.90
2017-11-08T23:47:43.591Z,80.93
2017-11-08T23:50:11.763Z,83.73
2017-11-08T23:52:39.924Z,87.10
2017-11-08T23:55:08.088Z,84.30
2017-11-08T23:57:37.021Z,86.13
